sensor_id;sensor_type;location;lat;lon;timestamp;P1;durP1;ratioP1;P2;durP2;ratioP2
38427;SDS011;24211;49.980;19.776;2023-08-30T00:01:33;6.88;;;3.97;;
38427;SDS011;24211;49.980;19.776;2023-08-30T00:04:01;9.43;;;4.57;;
38427;SDS011;24211;49.980;19.776;2023-08-30T00:06:28;7.00;;;3.67;;
38427;SDS011;24211;49.980;19.776;2023-08-30T00:08:55;8.68;;;4.18;;
38427;SDS011;24211;49.980;19.776;2023-08-30T00:11:23;7.47;;;3.92;;
38427;SDS011;24211;49.980;19.776;2023-08-30T00:13:51;8.30;;;4.30;;
38427;SDS011;24211;49.980;19.776;2023-08-30T00:16:18;7.93;;;4.20;;
38427;SDS011;24211;49.980;19.776;2023-08-30T00:18:45;7.60;;;4.05;;
38427;SDS011;24211;49.980;19.776;2023-08-30T00:21:13;7.70;;;3.95;;
38427;SDS011;24211;49.980;19.776;2023-08-30T00:23:40;7.85;;;3.80;;
38427;SDS011;24211;49.980;19.776;2023-08-30T00:26:07;6.85;;;3.63;;
38427;SDS011;24211;49.980;19.776;2023-08-30T00:28:34;7.10;;;3.67;;
38427;SDS011;24211;49.980;19.776;2023-08-30T00:31:01;6.03;;;3.60;;
38427;SDS011;24211;49.980;19.776;2023-08-30T00:33:29;7.07;;;3.60;;
38427;SDS011;24211;49.980;19.776;2023-08-30T00:35:57;6.03;;;3.30;;
38427;SDS011;24211;49.980;19.776;2023-08-30T00:38:26;6.50;;;3.22;;
38427;SDS011;24211;49.980;19.776;2023-08-30T00:40:55;5.88;;;3.20;;
38427;SDS011;24211;49.980;19.776;2023-08-30T00:43:22;5.85;;;3.15;;
38427;SDS011;24211;49.980;19.776;2023-08-30T00:45:49;5.47;;;2.90;;
38427;SDS011;24211;49.980;19.776;2023-08-30T00:48:19;7.03;;;3.13;;
38427;SDS011;24211;49.980;19.776;2023-08-30T00:50:47;5.95;;;3.10;;
38427;SDS011;24211;49.980;19.776;2023-08-30T00:53:15;5.88;;;3.00;;
38427;SDS011;24211;49.980;19.776;2023-08-30T00:55:44;6.47;;;3.22;;
38427;SDS011;24211;49.980;19.776;2023-08-30T00:58:12;6.55;;;2.80;;
38427;SDS011;24211;49.980;19.776;2023-08-30T01:00:39;6.22;;;2.78;;
38427;SDS011;24211;49.980;19.776;2023-08-30T01:03:09;5.60;;;2.88;;
38427;SDS011;24211;49.980;19.776;2023-08-30T01:05:37;5.78;;;3.03;;
38427;SDS011;24211;49.980;19.776;2023-08-30T01:08:04;5.80;;;3.15;;
38427;SDS011;24211;49.980;19.776;2023-08-30T01:10:53;4.97;;;2.95;;
38427;SDS011;24211;49.980;19.776;2023-08-30T01:13:53;5.10;;;2.80;;
38427;SDS011;24211;49.980;19.776;2023-08-30T01:16:30;4.80;;;2.75;;
38427;SDS011;24211;49.980;19.776;2023-08-30T01:18:59;5.72;;;2.90;;
38427;SDS011;24211;49.980;19.776;2023-08-30T01:24:37;6.70;;;2.90;;
38427;SDS011;24211;49.980;19.776;2023-08-30T01:27:16;6.97;;;3.00;;
38427;SDS011;24211;49.980;19.776;2023-08-30T01:29:46;5.65;;;2.97;;
38427;SDS011;24211;49.980;19.776;2023-08-30T01:32:16;6.00;;;3.22;;
38427;SDS011;24211;49.980;19.776;2023-08-30T01:34:43;5.70;;;3.10;;
38427;SDS011;24211;49.980;19.776;2023-08-30T01:37:14;5.40;;;3.05;;
38427;SDS011;24211;49.980;19.776;2023-08-30T01:39:43;5.85;;;3.10;;
38427;SDS011;24211;49.980;19.776;2023-08-30T01:42:11;5.53;;;3.10;;
38427;SDS011;24211;49.980;19.776;2023-08-30T01:44:42;6.03;;;2.92;;
38427;SDS011;24211;49.980;19.776;2023-08-30T01:47:11;5.78;;;3.10;;
38427;SDS011;24211;49.980;19.776;2023-08-30T01:49:39;5.15;;;3.03;;
38427;SDS011;24211;49.980;19.776;2023-08-30T01:52:06;5.80;;;3.10;;
38427;SDS011;24211;49.980;19.776;2023-08-30T01:54:37;5.50;;;3.13;;
38427;SDS011;24211;49.980;19.776;2023-08-30T01:57:07;6.28;;;3.47;;
38427;SDS011;24211;49.980;19.776;2023-08-30T01:59:34;6.43;;;3.55;;
38427;SDS011;24211;49.980;19.776;2023-08-30T02:02:02;7.32;;;3.78;;
38427;SDS011;24211;49.980;19.776;2023-08-30T02:04:30;6.50;;;3.50;;
38427;SDS011;24211;49.980;19.776;2023-08-30T02:07:02;5.50;;;3.45;;
38427;SDS011;24211;49.980;19.776;2023-08-30T02:12:13;6.18;;;3.78;;
38427;SDS011;24211;49.980;19.776;2023-08-30T02:14:44;6.00;;;3.28;;
38427;SDS011;24211;49.980;19.776;2023-08-30T02:17:15;4.95;;;3.08;;
38427;SDS011;24211;49.980;19.776;2023-08-30T02:19:44;7.70;;;3.72;;
38427;SDS011;24211;49.980;19.776;2023-08-30T02:24:44;6.43;;;3.40;;
38427;SDS011;24211;49.980;19.776;2023-08-30T02:27:11;8.52;;;4.00;;
38427;SDS011;24211;49.980;19.776;2023-08-30T02:29:39;6.50;;;3.78;;
38427;SDS011;24211;49.980;19.776;2023-08-30T02:32:06;7.60;;;3.90;;
38427;SDS011;24211;49.980;19.776;2023-08-30T02:34:34;6.70;;;4.18;;
38427;SDS011;24211;49.980;19.776;2023-08-30T02:37:02;7.72;;;4.35;;
38427;SDS011;24211;49.980;19.776;2023-08-30T02:39:29;7.03;;;4.10;;
38427;SDS011;24211;49.980;19.776;2023-08-30T02:41:56;6.65;;;4.03;;
38427;SDS011;24211;49.980;19.776;2023-08-30T02:44:24;8.38;;;4.10;;
38427;SDS011;24211;49.980;19.776;2023-08-30T02:46:51;8.40;;;4.70;;
38427;SDS011;24211;49.980;19.776;2023-08-30T02:49:18;7.32;;;4.43;;
38427;SDS011;24211;49.980;19.776;2023-08-30T02:51:45;8.43;;;4.18;;
38427;SDS011;24211;49.980;19.776;2023-08-30T02:54:12;8.45;;;4.63;;
38427;SDS011;24211;49.980;19.776;2023-08-30T02:56:40;7.70;;;4.55;;
38427;SDS011;24211;49.980;19.776;2023-08-30T02:59:10;8.07;;;4.60;;
38427;SDS011;24211;49.980;19.776;2023-08-30T03:01:39;7.72;;;4.38;;
38427;SDS011;24211;49.980;19.776;2023-08-30T03:04:07;8.07;;;4.57;;
38427;SDS011;24211;49.980;19.776;2023-08-30T03:06:35;7.30;;;4.43;;
38427;SDS011;24211;49.980;19.776;2023-08-30T03:09:02;7.50;;;4.30;;
38427;SDS011;24211;49.980;19.776;2023-08-30T03:11:33;8.23;;;4.45;;
38427;SDS011;24211;49.980;19.776;2023-08-30T03:14:03;7.90;;;3.80;;
38427;SDS011;24211;49.980;19.776;2023-08-30T03:16:31;7.38;;;4.25;;
38427;SDS011;24211;49.980;19.776;2023-08-30T03:18:58;7.80;;;4.40;;
38427;SDS011;24211;49.980;19.776;2023-08-30T03:21:29;8.32;;;4.38;;
38427;SDS011;24211;49.980;19.776;2023-08-30T03:23:57;8.60;;;4.65;;
38427;SDS011;24211;49.980;19.776;2023-08-30T03:26:24;9.15;;;4.68;;
38427;SDS011;24211;49.980;19.776;2023-08-30T03:28:53;10.88;;;4.75;;
38427;SDS011;24211;49.980;19.776;2023-08-30T03:31:21;8.27;;;4.78;;
38427;SDS011;24211;49.980;19.776;2023-08-30T03:33:50;8.75;;;4.50;;
38427;SDS011;24211;49.980;19.776;2023-08-30T03:36:17;9.25;;;4.70;;
38427;SDS011;24211;49.980;19.776;2023-08-30T03:38:45;9.57;;;5.00;;
38427;SDS011;24211;49.980;19.776;2023-08-30T03:41:13;9.00;;;5.00;;
38427;SDS011;24211;49.980;19.776;2023-08-30T03:43:42;9.20;;;4.97;;
38427;SDS011;24211;49.980;19.776;2023-08-30T03:46:10;8.43;;;4.65;;
38427;SDS011;24211;49.980;19.776;2023-08-30T03:48:39;10.10;;;4.50;;
38427;SDS011;24211;49.980;19.776;2023-08-30T03:51:06;8.65;;;4.68;;
38427;SDS011;24211;49.980;19.776;2023-08-30T03:53:33;8.77;;;4.43;;
38427;SDS011;24211;49.980;19.776;2023-08-30T03:56:01;10.90;;;4.63;;
38427;SDS011;24211;49.980;19.776;2023-08-30T03:58:30;8.32;;;4.15;;
38427;SDS011;24211;49.980;19.776;2023-08-30T04:00:58;7.95;;;4.60;;
38427;SDS011;24211;49.980;19.776;2023-08-30T04:03:25;7.70;;;4.07;;
38427;SDS011;24211;49.980;19.776;2023-08-30T04:05:55;9.38;;;4.28;;
38427;SDS011;24211;49.980;19.776;2023-08-30T04:08:24;7.78;;;3.85;;
38427;SDS011;24211;49.980;19.776;2023-08-30T04:10:54;8.52;;;3.90;;
38427;SDS011;24211;49.980;19.776;2023-08-30T04:13:23;6.53;;;3.67;;
38427;SDS011;24211;49.980;19.776;2023-08-30T04:15:52;6.82;;;3.47;;
38427;SDS011;24211;49.980;19.776;2023-08-30T04:18:19;7.85;;;3.90;;
38427;SDS011;24211;49.980;19.776;2023-08-30T04:20:46;7.68;;;3.63;;
38427;SDS011;24211;49.980;19.776;2023-08-30T04:23:14;6.97;;;3.53;;
38427;SDS011;24211;49.980;19.776;2023-08-30T04:25:43;6.47;;;3.50;;
38427;SDS011;24211;49.980;19.776;2023-08-30T04:28:11;6.50;;;3.58;;
38427;SDS011;24211;49.980;19.776;2023-08-30T04:30:39;6.22;;;3.30;;
38427;SDS011;24211;49.980;19.776;2023-08-30T04:33:07;6.72;;;3.63;;
38427;SDS011;24211;49.980;19.776;2023-08-30T04:35:34;7.82;;;3.65;;
38427;SDS011;24211;49.980;19.776;2023-08-30T04:38:02;7.72;;;3.75;;
38427;SDS011;24211;49.980;19.776;2023-08-30T04:40:30;7.25;;;3.90;;
38427;SDS011;24211;49.980;19.776;2023-08-30T04:43:00;7.05;;;3.67;;
38427;SDS011;24211;49.980;19.776;2023-08-30T04:45:29;9.68;;;3.95;;
38427;SDS011;24211;49.980;19.776;2023-08-30T04:47:57;6.45;;;3.80;;
38427;SDS011;24211;49.980;19.776;2023-08-30T04:50:26;6.97;;;3.78;;
38427;SDS011;24211;49.980;19.776;2023-08-30T04:52:54;7.20;;;3.88;;
38427;SDS011;24211;49.980;19.776;2023-08-30T04:55:25;9.25;;;3.90;;
38427;SDS011;24211;49.980;19.776;2023-08-30T04:57:55;7.93;;;4.18;;
38427;SDS011;24211;49.980;19.776;2023-08-30T05:00:22;7.03;;;3.97;;
38427;SDS011;24211;49.980;19.776;2023-08-30T05:02:51;7.45;;;4.05;;
38427;SDS011;24211;49.980;19.776;2023-08-30T05:05:19;7.47;;;3.75;;
38427;SDS011;24211;49.980;19.776;2023-08-30T05:07:47;8.85;;;3.90;;
38427;SDS011;24211;49.980;19.776;2023-08-30T05:10:14;9.43;;;4.32;;
38427;SDS011;24211;49.980;19.776;2023-08-30T05:12:41;7.72;;;4.20;;
38427;SDS011;24211;49.980;19.776;2023-08-30T05:15:10;8.25;;;4.35;;
38427;SDS011;24211;49.980;19.776;2023-08-30T05:17:38;8.07;;;4.35;;
38427;SDS011;24211;49.980;19.776;2023-08-30T05:20:05;9.00;;;4.38;;
38427;SDS011;24211;49.980;19.776;2023-08-30T05:22:33;8.57;;;4.30;;
38427;SDS011;24211;49.980;19.776;2023-08-30T05:25:02;8.93;;;4.10;;
38427;SDS011;24211;49.980;19.776;2023-08-30T05:27:31;7.13;;;3.90;;
38427;SDS011;24211;49.980;19.776;2023-08-30T05:29:58;7.00;;;3.78;;
38427;SDS011;24211;49.980;19.776;2023-08-30T05:32:27;8.23;;;4.20;;
38427;SDS011;24211;49.980;19.776;2023-08-30T05:35:17;10.35;;;4.57;;
38427;SDS011;24211;49.980;19.776;2023-08-30T05:37:48;9.07;;;4.55;;
38427;SDS011;24211;49.980;19.776;2023-08-30T05:40:37;11.48;;;4.95;;
38427;SDS011;24211;49.980;19.776;2023-08-30T05:43:09;10.70;;;5.18;;
38427;SDS011;24211;49.980;19.776;2023-08-30T05:45:36;10.57;;;5.18;;
38427;SDS011;24211;49.980;19.776;2023-08-30T05:48:04;9.90;;;5.00;;
38427;SDS011;24211;49.980;19.776;2023-08-30T05:50:32;10.50;;;5.20;;
38427;SDS011;24211;49.980;19.776;2023-08-30T05:53:04;10.55;;;4.97;;
38427;SDS011;24211;49.980;19.776;2023-08-30T05:55:31;8.85;;;4.90;;
38427;SDS011;24211;49.980;19.776;2023-08-30T05:57:59;10.32;;;4.88;;
38427;SDS011;24211;49.980;19.776;2023-08-30T06:00:26;9.48;;;4.90;;
38427;SDS011;24211;49.980;19.776;2023-08-30T06:02:54;9.63;;;5.28;;
38427;SDS011;24211;49.980;19.776;2023-08-30T06:05:21;10.73;;;4.88;;
38427;SDS011;24211;49.980;19.776;2023-08-30T06:07:48;8.23;;;4.80;;
38427;SDS011;24211;49.980;19.776;2023-08-30T06:10:15;11.20;;;5.25;;
38427;SDS011;24211;49.980;19.776;2023-08-30T06:12:43;12.73;;;5.43;;
38427;SDS011;24211;49.980;19.776;2023-08-30T06:15:10;11.30;;;5.15;;
38427;SDS011;24211;49.980;19.776;2023-08-30T06:17:37;10.57;;;5.47;;
38427;SDS011;24211;49.980;19.776;2023-08-30T06:20:04;8.82;;;4.75;;
38427;SDS011;24211;49.980;19.776;2023-08-30T06:22:33;11.32;;;5.38;;
38427;SDS011;24211;49.980;19.776;2023-08-30T06:25:01;11.02;;;5.53;;
38427;SDS011;24211;49.980;19.776;2023-08-30T06:27:29;12.30;;;5.93;;
38427;SDS011;24211;49.980;19.776;2023-08-30T06:29:56;12.65;;;5.50;;
38427;SDS011;24211;49.980;19.776;2023-08-30T06:32:24;11.07;;;5.72;;
38427;SDS011;24211;49.980;19.776;2023-08-30T06:34:51;12.20;;;6.00;;
38427;SDS011;24211;49.980;19.776;2023-08-30T06:37:19;12.55;;;6.20;;
38427;SDS011;24211;49.980;19.776;2023-08-30T06:39:46;11.45;;;6.18;;
38427;SDS011;24211;49.980;19.776;2023-08-30T06:42:13;13.35;;;6.25;;
38427;SDS011;24211;49.980;19.776;2023-08-30T06:44:40;12.30;;;6.05;;
38427;SDS011;24211;49.980;19.776;2023-08-30T06:47:07;12.15;;;5.90;;
38427;SDS011;24211;49.980;19.776;2023-08-30T06:49:35;12.18;;;5.75;;
38427;SDS011;24211;49.980;19.776;2023-08-30T06:52:02;12.85;;;6.07;;
38427;SDS011;24211;49.980;19.776;2023-08-30T06:54:33;11.00;;;5.60;;
38427;SDS011;24211;49.980;19.776;2023-08-30T06:57:03;10.95;;;5.97;;
38427;SDS011;24211;49.980;19.776;2023-08-30T06:59:32;11.15;;;5.30;;
38427;SDS011;24211;49.980;19.776;2023-08-30T07:01:59;10.52;;;5.40;;
38427;SDS011;24211;49.980;19.776;2023-08-30T07:04:28;10.98;;;5.40;;
38427;SDS011;24211;49.980;19.776;2023-08-30T07:06:56;10.02;;;4.68;;
38427;SDS011;24211;49.980;19.776;2023-08-30T07:09:23;7.75;;;4.35;;
38427;SDS011;24211;49.980;19.776;2023-08-30T07:11:55;7.80;;;3.78;;
38427;SDS011;24211;49.980;19.776;2023-08-30T07:14:22;7.07;;;3.40;;
38427;SDS011;24211;49.980;19.776;2023-08-30T07:16:50;7.03;;;3.20;;
38427;SDS011;24211;49.980;19.776;2023-08-30T07:19:17;6.07;;;3.05;;
38427;SDS011;24211;49.980;19.776;2023-08-30T07:21:44;6.47;;;3.15;;
38427;SDS011;24211;49.980;19.776;2023-08-30T07:24:12;5.80;;;2.80;;
38427;SDS011;24211;49.980;19.776;2023-08-30T07:26:39;5.32;;;2.85;;
38427;SDS011;24211;49.980;19.776;2023-08-30T07:29:06;5.30;;;2.53;;
38427;SDS011;24211;49.980;19.776;2023-08-30T07:31:33;5.28;;;2.95;;
38427;SDS011;24211;49.980;19.776;2023-08-30T07:34:00;4.55;;;2.40;;
38427;SDS011;24211;49.980;19.776;2023-08-30T07:36:29;5.05;;;2.70;;
38427;SDS011;24211;49.980;19.776;2023-08-30T07:39:12;5.70;;;2.67;;
38427;SDS011;24211;49.980;19.776;2023-08-30T07:41:40;6.13;;;2.80;;
38427;SDS011;24211;49.980;19.776;2023-08-30T07:44:08;6.30;;;2.90;;
38427;SDS011;24211;49.980;19.776;2023-08-30T07:46:35;5.50;;;2.80;;
38427;SDS011;24211;49.980;19.776;2023-08-30T07:49:02;5.55;;;2.78;;
38427;SDS011;24211;49.980;19.776;2023-08-30T07:51:30;4.65;;;2.50;;
38427;SDS011;24211;49.980;19.776;2023-08-30T07:53:57;6.00;;;2.78;;
38427;SDS011;24211;49.980;19.776;2023-08-30T07:56:24;5.32;;;2.90;;
38427;SDS011;24211;49.980;19.776;2023-08-30T07:58:53;6.72;;;3.22;;
38427;SDS011;24211;49.980;19.776;2023-08-30T08:01:21;7.40;;;3.30;;
38427;SDS011;24211;49.980;19.776;2023-08-30T08:03:49;9.25;;;3.20;;
38427;SDS011;24211;49.980;19.776;2023-08-30T08:06:33;7.30;;;3.40;;
38427;SDS011;24211;49.980;19.776;2023-08-30T08:09:03;6.13;;;3.45;;
38427;SDS011;24211;49.980;19.776;2023-08-30T08:11:33;8.43;;;3.50;;
38427;SDS011;24211;49.980;19.776;2023-08-30T08:14:02;8.10;;;3.88;;
38427;SDS011;24211;49.980;19.776;2023-08-30T08:16:30;9.57;;;4.15;;
38427;SDS011;24211;49.980;19.776;2023-08-30T08:18:57;8.30;;;4.10;;
38427;SDS011;24211;49.980;19.776;2023-08-30T08:21:29;8.43;;;4.22;;
38427;SDS011;24211;49.980;19.776;2023-08-30T08:23:56;9.57;;;3.88;;
38427;SDS011;24211;49.980;19.776;2023-08-30T08:26:23;8.68;;;4.35;;
38427;SDS011;24211;49.980;19.776;2023-08-30T08:28:51;9.85;;;4.20;;
38427;SDS011;24211;49.980;19.776;2023-08-30T08:31:21;8.90;;;4.10;;
38427;SDS011;24211;49.980;19.776;2023-08-30T08:33:51;8.38;;;4.20;;
38427;SDS011;24211;49.980;19.776;2023-08-30T08:36:40;7.80;;;4.22;;
38427;SDS011;24211;49.980;19.776;2023-08-30T08:39:08;8.82;;;4.30;;
38427;SDS011;24211;49.980;19.776;2023-08-30T08:41:40;9.02;;;4.18;;
38427;SDS011;24211;49.980;19.776;2023-08-30T08:44:10;6.20;;;3.63;;
38427;SDS011;24211;49.980;19.776;2023-08-30T08:46:40;8.32;;;4.00;;
38427;SDS011;24211;49.980;19.776;2023-08-30T08:49:12;10.05;;;4.20;;
38427;SDS011;24211;49.980;19.776;2023-08-30T08:51:44;8.13;;;4.07;;
38427;SDS011;24211;49.980;19.776;2023-08-30T08:54:12;6.75;;;3.63;;
38427;SDS011;24211;49.980;19.776;2023-08-30T08:56:40;6.78;;;3.70;;
38427;SDS011;24211;49.980;19.776;2023-08-30T08:59:07;7.25;;;3.60;;
38427;SDS011;24211;49.980;19.776;2023-08-30T09:01:36;8.38;;;4.00;;
38427;SDS011;24211;49.980;19.776;2023-08-30T09:04:13;6.97;;;3.88;;
38427;SDS011;24211;49.980;19.776;2023-08-30T09:06:41;8.02;;;3.70;;
38427;SDS011;24211;49.980;19.776;2023-08-30T09:09:10;7.45;;;4.00;;
38427;SDS011;24211;49.980;19.776;2023-08-30T09:11:38;7.10;;;3.70;;
38427;SDS011;24211;49.980;19.776;2023-08-30T09:14:17;6.45;;;3.60;;
38427;SDS011;24211;49.980;19.776;2023-08-30T09:16:58;6.25;;;3.42;;
38427;SDS011;24211;49.980;19.776;2023-08-30T09:19:30;7.07;;;3.60;;
38427;SDS011;24211;49.980;19.776;2023-08-30T09:21:58;6.47;;;3.10;;
38427;SDS011;24211;49.980;19.776;2023-08-30T09:24:40;7.63;;;3.77;;
38427;SDS011;24211;49.980;19.776;2023-08-30T09:27:08;7.78;;;3.80;;
38427;SDS011;24211;49.980;19.776;2023-08-30T09:29:35;6.47;;;3.45;;
38427;SDS011;24211;49.980;19.776;2023-08-30T09:32:03;6.95;;;3.58;;
38427;SDS011;24211;49.980;19.776;2023-08-30T09:34:30;6.03;;;3.38;;
38427;SDS011;24211;49.980;19.776;2023-08-30T09:36:58;8.75;;;3.67;;
38427;SDS011;24211;49.980;19.776;2023-08-30T09:39:30;7.55;;;3.90;;
38427;SDS011;24211;49.980;19.776;2023-08-30T09:42:00;10.48;;;3.72;;
38427;SDS011;24211;49.980;19.776;2023-08-30T09:44:29;8.38;;;4.15;;
38427;SDS011;24211;49.980;19.776;2023-08-30T09:46:56;8.75;;;4.00;;
38427;SDS011;24211;49.980;19.776;2023-08-30T09:49:25;6.90;;;3.63;;
38427;SDS011;24211;49.980;19.776;2023-08-30T09:51:53;8.18;;;3.78;;
38427;SDS011;24211;49.980;19.776;2023-08-30T09:54:24;8.65;;;3.67;;
38427;SDS011;24211;49.980;19.776;2023-08-30T09:57:13;8.00;;;3.70;;
38427;SDS011;24211;49.980;19.776;2023-08-30T09:59:41;7.70;;;3.75;;
38427;SDS011;24211;49.980;19.776;2023-08-30T10:02:09;7.15;;;3.75;;
38427;SDS011;24211;49.980;19.776;2023-08-30T10:04:40;8.90;;;4.00;;
38427;SDS011;24211;49.980;19.776;2023-08-30T10:07:13;8.50;;;4.10;;
38427;SDS011;24211;49.980;19.776;2023-08-30T10:09:42;7.60;;;3.63;;
38427;SDS011;24211;49.980;19.776;2023-08-30T10:12:31;8.07;;;3.95;;
38427;SDS011;24211;49.980;19.776;2023-08-30T10:14:59;6.80;;;3.53;;
38427;SDS011;24211;49.980;19.776;2023-08-30T10:17:31;8.50;;;3.90;;
38427;SDS011;24211;49.980;19.776;2023-08-30T10:20:25;8.45;;;4.30;;
38427;SDS011;24211;49.980;19.776;2023-08-30T10:22:54;7.50;;;4.22;;
38427;SDS011;24211;49.980;19.776;2023-08-30T10:25:28;7.00;;;3.60;;
38427;SDS011;24211;49.980;19.776;2023-08-30T10:27:59;7.45;;;3.65;;
38427;SDS011;24211;49.980;19.776;2023-08-30T10:30:30;7.72;;;3.65;;
38427;SDS011;24211;49.980;19.776;2023-08-30T10:32:58;7.35;;;3.85;;
38427;SDS011;24211;49.980;19.776;2023-08-30T10:35:27;8.32;;;4.15;;
38427;SDS011;24211;49.980;19.776;2023-08-30T10:37:55;7.55;;;3.97;;
38427;SDS011;24211;49.980;19.776;2023-08-30T10:40:26;7.60;;;3.83;;
38427;SDS011;24211;49.980;19.776;2023-08-30T10:43:00;8.73;;;4.13;;
38427;SDS011;24211;49.980;19.776;2023-08-30T10:45:29;8.70;;;4.47;;
38427;SDS011;24211;49.980;19.776;2023-08-30T10:47:57;9.93;;;4.07;;
38427;SDS011;24211;49.980;19.776;2023-08-30T10:50:29;8.82;;;4.40;;
38427;SDS011;24211;49.980;19.776;2023-08-30T10:53:00;7.70;;;4.18;;
38427;SDS011;24211;49.980;19.776;2023-08-30T10:55:27;9.15;;;4.53;;
38427;SDS011;24211;49.980;19.776;2023-08-30T10:57:59;8.65;;;4.38;;
38427;SDS011;24211;49.980;19.776;2023-08-30T11:00:31;7.47;;;4.07;;
38427;SDS011;24211;49.980;19.776;2023-08-30T11:02:59;9.52;;;4.35;;
38427;SDS011;24211;49.980;19.776;2023-08-30T11:05:26;8.48;;;4.55;;
38427;SDS011;24211;49.980;19.776;2023-08-30T11:07:56;8.73;;;4.55;;
38427;SDS011;24211;49.980;19.776;2023-08-30T11:10:23;9.50;;;4.40;;
38427;SDS011;24211;49.980;19.776;2023-08-30T11:12:51;8.60;;;4.25;;
38427;SDS011;24211;49.980;19.776;2023-08-30T11:15:18;8.57;;;4.53;;
38427;SDS011;24211;49.980;19.776;2023-08-30T11:17:48;7.40;;;4.25;;
38427;SDS011;24211;49.980;19.776;2023-08-30T11:20:16;8.38;;;4.47;;
38427;SDS011;24211;49.980;19.776;2023-08-30T11:22:47;6.70;;;3.80;;
38427;SDS011;24211;49.980;19.776;2023-08-30T11:25:16;8.48;;;4.47;;
38427;SDS011;24211;49.980;19.776;2023-08-30T11:27:44;9.30;;;4.60;;
38427;SDS011;24211;49.980;19.776;2023-08-30T11:30:12;8.60;;;4.55;;
38427;SDS011;24211;49.980;19.776;2023-08-30T11:32:40;9.20;;;4.70;;
38427;SDS011;24211;49.980;19.776;2023-08-30T11:35:12;9.98;;;4.80;;
38427;SDS011;24211;49.980;19.776;2023-08-30T11:37:40;9.95;;;5.00;;
38427;SDS011;24211;49.980;19.776;2023-08-30T11:40:09;9.98;;;4.80;;
38427;SDS011;24211;49.980;19.776;2023-08-30T11:42:38;9.05;;;4.03;;
38427;SDS011;24211;49.980;19.776;2023-08-30T11:45:06;7.68;;;4.32;;
38427;SDS011;24211;49.980;19.776;2023-08-30T11:47:34;7.75;;;3.95;;
38427;SDS011;24211;49.980;19.776;2023-08-30T11:50:02;7.85;;;4.20;;
38427;SDS011;24211;49.980;19.776;2023-08-30T11:52:30;7.50;;;3.88;;
38427;SDS011;24211;49.980;19.776;2023-08-30T11:54:58;7.32;;;4.07;;
38427;SDS011;24211;49.980;19.776;2023-08-30T11:57:27;8.00;;;4.15;;
38427;SDS011;24211;49.980;19.776;2023-08-30T11:59:54;9.48;;;4.22;;
38427;SDS011;24211;49.980;19.776;2023-08-30T12:02:22;8.02;;;4.10;;
38427;SDS011;24211;49.980;19.776;2023-08-30T12:04:50;9.80;;;4.45;;
38427;SDS011;24211;49.980;19.776;2023-08-30T12:07:21;7.45;;;4.13;;
38427;SDS011;24211;49.980;19.776;2023-08-30T12:09:50;8.25;;;4.47;;
38427;SDS011;24211;49.980;19.776;2023-08-30T12:12:18;8.90;;;4.32;;
38427;SDS011;24211;49.980;19.776;2023-08-30T12:14:46;7.82;;;4.25;;
38427;SDS011;24211;49.980;19.776;2023-08-30T12:17:23;8.95;;;4.22;;
38427;SDS011;24211;49.980;19.776;2023-08-30T12:19:57;9.75;;;4.47;;
38427;SDS011;24211;49.980;19.776;2023-08-30T12:22:39;7.65;;;4.18;;
38427;SDS011;24211;49.980;19.776;2023-08-30T12:25:15;8.40;;;4.80;;
38427;SDS011;24211;49.980;19.776;2023-08-30T12:27:46;9.00;;;4.60;;
38427;SDS011;24211;49.980;19.776;2023-08-30T12:30:14;8.95;;;4.78;;
38427;SDS011;24211;49.980;19.776;2023-08-30T12:32:45;8.43;;;4.50;;
38427;SDS011;24211;49.980;19.776;2023-08-30T12:35:14;9.88;;;5.18;;
38427;SDS011;24211;49.980;19.776;2023-08-30T12:37:42;9.75;;;5.60;;
38427;SDS011;24211;49.980;19.776;2023-08-30T12:40:09;12.02;;;6.13;;
38427;SDS011;24211;49.980;19.776;2023-08-30T12:42:37;11.90;;;6.35;;
38427;SDS011;24211;49.980;19.776;2023-08-30T12:45:05;11.93;;;7.15;;
38427;SDS011;24211;49.980;19.776;2023-08-30T12:47:34;14.20;;;7.20;;
38427;SDS011;24211;49.980;19.776;2023-08-30T12:50:03;11.50;;;6.53;;
38427;SDS011;24211;49.980;19.776;2023-08-30T12:52:30;13.68;;;6.63;;
38427;SDS011;24211;49.980;19.776;2023-08-30T12:54:58;12.55;;;7.00;;
38427;SDS011;24211;49.980;19.776;2023-08-30T12:57:26;13.25;;;6.95;;
38427;SDS011;24211;49.980;19.776;2023-08-30T12:59:53;14.25;;;7.13;;
38427;SDS011;24211;49.980;19.776;2023-08-30T13:02:20;12.48;;;6.60;;
38427;SDS011;24211;49.980;19.776;2023-08-30T13:04:48;11.90;;;6.75;;
38427;SDS011;24211;49.980;19.776;2023-08-30T13:07:15;12.38;;;6.85;;
38427;SDS011;24211;49.980;19.776;2023-08-30T13:09:42;11.57;;;6.55;;
38427;SDS011;24211;49.980;19.776;2023-08-30T13:12:10;12.13;;;6.22;;
38427;SDS011;24211;49.980;19.776;2023-08-30T13:14:37;12.43;;;6.72;;
38427;SDS011;24211;49.980;19.776;2023-08-30T13:17:04;11.70;;;6.47;;
38427;SDS011;24211;49.980;19.776;2023-08-30T13:19:31;11.52;;;6.35;;
38427;SDS011;24211;49.980;19.776;2023-08-30T13:21:58;10.43;;;6.25;;
38427;SDS011;24211;49.980;19.776;2023-08-30T13:24:26;10.60;;;6.25;;
38427;SDS011;24211;49.980;19.776;2023-08-30T13:26:54;11.70;;;6.20;;
38427;SDS011;24211;49.980;19.776;2023-08-30T13:29:21;10.02;;;6.07;;
38427;SDS011;24211;49.980;19.776;2023-08-30T13:31:48;10.95;;;6.13;;
38427;SDS011;24211;49.980;19.776;2023-08-30T13:34:15;10.90;;;6.32;;
38427;SDS011;24211;49.980;19.776;2023-08-30T13:36:43;10.73;;;6.00;;
38427;SDS011;24211;49.980;19.776;2023-08-30T13:39:10;10.95;;;5.95;;
38427;SDS011;24211;49.980;19.776;2023-08-30T13:41:37;9.95;;;5.65;;
38427;SDS011;24211;49.980;19.776;2023-08-30T13:44:05;11.23;;;5.93;;
38427;SDS011;24211;49.980;19.776;2023-08-30T13:46:32;12.05;;;5.90;;
38427;SDS011;24211;49.980;19.776;2023-08-30T13:49:01;10.05;;;5.32;;
38427;SDS011;24211;49.980;19.776;2023-08-30T13:51:28;11.15;;;6.00;;
38427;SDS011;24211;49.980;19.776;2023-08-30T13:53:56;11.80;;;5.70;;
38427;SDS011;24211;49.980;19.776;2023-08-30T13:56:24;10.85;;;5.50;;
38427;SDS011;24211;49.980;19.776;2023-08-30T13:58:51;10.20;;;5.65;;
38427;SDS011;24211;49.980;19.776;2023-08-30T14:01:18;11.00;;;5.95;;
38427;SDS011;24211;49.980;19.776;2023-08-30T14:03:46;11.52;;;5.63;;
38427;SDS011;24211;49.980;19.776;2023-08-30T14:06:13;11.57;;;5.47;;
38427;SDS011;24211;49.980;19.776;2023-08-30T14:08:41;10.48;;;5.22;;
38427;SDS011;24211;49.980;19.776;2023-08-30T14:11:09;10.63;;;5.25;;
38427;SDS011;24211;49.980;19.776;2023-08-30T14:13:36;10.23;;;5.13;;
38427;SDS011;24211;49.980;19.776;2023-08-30T14:16:04;8.15;;;4.68;;
38427;SDS011;24211;49.980;19.776;2023-08-30T14:18:31;9.32;;;4.70;;
38427;SDS011;24211;49.980;19.776;2023-08-30T14:20:59;9.75;;;5.20;;
38427;SDS011;24211;49.980;19.776;2023-08-30T14:23:29;8.43;;;4.72;;
38427;SDS011;24211;49.980;19.776;2023-08-30T14:26:00;9.18;;;4.70;;
38427;SDS011;24211;49.980;19.776;2023-08-30T14:28:36;9.32;;;4.70;;
38427;SDS011;24211;49.980;19.776;2023-08-30T14:31:07;9.63;;;4.30;;
38427;SDS011;24211;49.980;19.776;2023-08-30T14:33:41;10.23;;;4.43;;
38427;SDS011;24211;49.980;19.776;2023-08-30T14:36:13;8.52;;;4.00;;
38427;SDS011;24211;49.980;19.776;2023-08-30T14:38:42;8.32;;;4.20;;
38427;SDS011;24211;49.980;19.776;2023-08-30T14:41:09;8.25;;;3.65;;
38427;SDS011;24211;49.980;19.776;2023-08-30T14:43:37;8.25;;;4.25;;
38427;SDS011;24211;49.980;19.776;2023-08-30T14:46:05;6.75;;;3.60;;
38427;SDS011;24211;49.980;19.776;2023-08-30T14:48:39;7.38;;;3.55;;
38427;SDS011;24211;49.980;19.776;2023-08-30T14:51:06;6.82;;;3.75;;